Time,TemperatureF,DewpointF,PressureIn,WindDirection,WindDirectionDegrees,WindSpeedMPH,WindSpeedGustMPH,Humidity,HourlyPrecipIn,Conditions,Clouds,dailyrainin,SoftwareType,DateUTC
2013-07-10 00:01:00,77.4,74.2,29.91,SW,216,2.4,3.5,90,0.00,CLR,,0.00,WeatherDisplay:10.37,2013-07-10 04:01:00,
2013-07-10 00:06:00,77.3,74.5,29.91,SW,227,4.1,4.6,91,0.00,CLR,,0.00,WeatherDisplay:10.37,2013-07-10 04:06:00,
2013-07-10 00:11:00,77.2,74.4,29.90,SSW,213,5.2,6.9,91,0.00,CLR,,0.00,WeatherDisplay:10.37,2013-07-10 04:11:00,
2013-07-10 00:16:00,77.3,74.5,29.90,SW,217,3.8,5.8,91,0.00,CLR,,0.00,WeatherDisplay:10.37,2013-07-10 04:16:00,
2013-07-10 00:21:00,77.3,74.5,29.90,SW,223,4.8,7.0,91,0.00,CLR,,0.00,WeatherDisplay:10.37,2013-07-10 04:21:00,
2013-07-10 00:26:00,77.3,74.5,29.90,SW,219,4.7,6.0,91,0.00,CLR,,0.00,WeatherDisplay:10.37,2013-07-10 04:26:00,
2013-07-10 00:31:00,77.3,74.5,29.90,SW,226,3.6,4.6,91,0.00,CLR,,0.00,WeatherDisplay:10.37,2013-07-10 04:31:00,
2013-07-10 00:36:00,77.3,74.5,29.91,SW,234,4.9,7.0,91,0.00,CLR,,0.00,WeatherDisplay:10.37,2013-07-10 04:36:00,
2013-07-10 00:41:00,77.3,74.5,29.91,SW,233,3.2,6.0,91,0.00,CLR,,0.00,WeatherDisplay:10.37,2013-07-10 04:41:00,
2013-07-10 00:46:00,77.3,74.8,29.91,SSW,202,4.0,5.8,92,0.00,CLR,,0.00,WeatherDisplay:10.37,2013-07-10 04:46:00,
2013-07-10 00:51:00,77.3,74.8,29.91,SW,225,3.9,5.8,92,0.00,CLR,,0.00,WeatherDisplay:10.37,2013-07-10 04:51:00,
2013-07-10 00:56:00,77.3,74.8,29.90,SW,228,3.1,4.6,92,0.00,CLR,,0.00,WeatherDisplay:10.37,2013-07-10 04:56:00,
2013-07-10 01:01:00,77.4,74.9,29.90,SW,225,4.1,6.0,92,0.00,CLR,,0.00,WeatherDisplay:10.37,2013-07-10 05:01:00,
2013-07-10 01:06:00,77.4,74.9,29.90,SW,233,4.6,6.9,92,0.00,CLR,,0.00,WeatherDisplay:10.37,2013-07-10 05:06:00,
2013-07-10 01:11:00,77.3,74.8,29.90,SW,219,4.7,5.8,92,0.00,CLR,,0.00,WeatherDisplay:10.37,2013-07-10 05:11:00,
2013-07-10 01:16:00,77.4,74.9,29.90,SW,223,3.9,5.8,92,0.00,CLR,,0.00,WeatherDisplay:10.37,2013-07-10 05:16:00,
2013-07-10 01:21:00,77.4,74.9,29.90,SSW,198,3.7,5.8,92,0.00,CLR,,0.00,WeatherDisplay:10.37,2013-07-10 05:21:00,
2013-07-10 01:26:00,77.3,74.8,29.90,SW,229,4.5,5.8,92,0.00,CLR,,0.00,WeatherDisplay:10.37,2013-07-10 05:26:00,
2013-07-10 01:31:00,77.3,74.8,29.90,SW,216,4.5,6.9,92,0.00,CLR,,0.00,WeatherDisplay:10.37,2013-07-10 05:31:00,
2013-07-10 01:36:00,77.2,74.7,29.90,SW,232,6.1,8.1,92,0.00,CLR,,0.00,WeatherDisplay:10.37,2013-07-10 05:36:00,
2013-07-10 01:41:00,77.2,74.7,29.90,SW,223,3.7,5.8,92,0.00,CLR,,0.00,WeatherDisplay:10.37,2013-07-10 05:41:00,
2013-07-10 01:46:00,77.1,74.6,29.90,SW,226,5.1,6.9,92,0.00,CLR,,0.00,WeatherDisplay:10.37,2013-07-10 05:46:00,
2013-07-10 01:51:00,77.1,74.6,29.90,SW,235,4.1,7.0,92,0.00,CLR,,0.00,WeatherDisplay:10.37,2013-07-10 05:51:00,
2013-07-10 01:56:00,77.1,74.9,29.90,SSW,207,7.5,10.4,93,0.00,CLR,,0.00,WeatherDisplay:10.37,2013-07-10 05:56:00,
2013-07-10 02:01:00,77.2,74.7,29.90,SW,228,4.4,5.8,92,0.00,CLR,,0.00,WeatherDisplay:10.37,2013-07-10 06:01:00,
2013-07-10 02:06:00,77.2,74.7,29.89,SW,233,4.4,9.2,92,0.00,CLR,,0.00,WeatherDisplay:10.37,2013-07-10 06:06:00,
2013-07-10 02:11:00,77.3,74.8,29.89,SW,222,5.9,6.9,92,0.00,CLR,,0.00,WeatherDisplay:10.37,2013-07-10 06:11:00,
2013-07-10 02:16:00,77.6,75.1,29.89,WSW,247,6.1,8.1,92,0.00,CLR,,0.00,WeatherDisplay:10.37,2013-07-10 06:16:00,
2013-07-10 02:21:00,77.6,74.8,29.89,SW,217,6.6,8.1,91,0.00,CLR,,0.00,WeatherDisplay:10.37,2013-07-10 06:21:00,
2013-07-10 02:26:00,77.7,74.9,29.89,SW,230,6.7,9.2,91,0.00,CLR,,0.00,WeatherDisplay:10.37,2013-07-10 06:26:00,
2013-07-10 02:31:00,77.8,75.0,29.89,WSW,243,4.8,10.4,91,0.00,CLR,,0.00,WeatherDisplay:10.37,2013-07-10 06:31:00,
2013-07-10 02:36:00,77.7,74.9,29.89,SW,232,6.1,8.1,91,0.00,CLR,,0.00,WeatherDisplay:10.37,2013-07-10 06:36:00,
2013-07-10 02:41:00,77.6,74.8,29.88,SW,225,6.9,10.4,91,0.00,CLR,,0.00,WeatherDisplay:10.37,2013-07-10 06:41:00,
2013-07-10 02:46:00,77.6,74.8,29.88,SW,217,6.6,10.4,91,0.00,CLR,,0.00,WeatherDisplay:10.37,2013-07-10 06:46:00,
2013-07-10 02:51:00,77.5,74.7,29.88,SW,228,7.6,9.2,91,0.00,CLR,,0.00,WeatherDisplay:10.37,2013-07-10 06:51:00,
2013-07-10 02:56:00,77.6,74.8,29.88,WSW,256,6.9,8.1,91,0.00,CLR,,0.00,WeatherDisplay:10.37,2013-07-10 06:56:00,
2013-07-10 03:01:00,77.5,74.7,29.88,SW,227,6.1,8.1,91,0.00,CLR,,0.00,WeatherDisplay:10.37,2013-07-10 07:01:00,
2013-07-10 03:06:00,77.4,74.6,29.88,SW,234,7.2,9.2,91,0.00,CLR,,0.00,WeatherDisplay:10.37,2013-07-10 07:06:00,
2013-07-10 03:11:00,77.4,74.6,29.88,SW,224,5.1,5.8,91,0.00,CLR,,0.00,WeatherDisplay:10.37,2013-07-10 07:11:00,
2013-07-10 03:16:00,77.3,74.8,29.88,SW,222,5.2,8.1,92,0.00,CLR,,0.00,WeatherDisplay:10.37,2013-07-10 07:16:00,
2013-07-10 03:21:00,77.2,74.7,29.88,SW,221,4.3,5.8,92,0.00,CLR,,0.00,WeatherDisplay:10.37,2013-07-10 07:21:00,
2013-07-10 03:26:00,77.0,74.5,29.88,SW,233,4.7,5.8,92,0.00,CLR,,0.00,WeatherDisplay:10.37,2013-07-10 07:26:00,
2013-07-10 03:31:00,76.9,74.4,29.88,SW,233,4.6,5.8,92,0.00,CLR,,0.00,WeatherDisplay:10.37,2013-07-10 07:31:00,
2013-07-10 03:36:00,76.9,74.4,29.87,SW,224,5.0,6.9,92,0.00,CLR,,0.00,WeatherDisplay:10.37,2013-07-10 07:36:00,
2013-07-10 03:41:00,76.8,74.3,29.87,SW,232,5.1,5.8,92,0.00,CLR,,0.00,WeatherDisplay:10.37,2013-07-10 07:41:00,
2013-07-10 03:46:00,76.9,74.4,29.87,SW,217,6.5,10.4,92,0.00,CLR,,0.00,WeatherDisplay:10.37,2013-07-10 07:46:00,
2013-07-10 03:51:00,76.9,74.4,29.87,SW,233,7.6,10.4,92,0.00,CLR,,0.00,WeatherDisplay:10.37,2013-07-10 07:51:00,
2013-07-10 03:56:00,76.9,74.4,29.87,WSW,242,5.1,9.0,92,0.00,CLR,,0.00,WeatherDisplay:10.37,2013-07-10 07:56:00,
2013-07-10 04:01:00,76.9,74.4,29.87,SW,233,6.2,6.9,92,0.00,CLR,,0.00,WeatherDisplay:10.37,2013-07-10 08:01:00,
2013-07-10 04:06:00,76.9,74.4,29.87,WSW,238,6.3,8.1,92,0.00,CLR,,0.00,WeatherDisplay:10.37,2013-07-10 08:06:00,
2013-07-10 04:11:00,76.9,74.4,29.87,SW,221,7.0,11.5,92,0.00,CLR,,0.00,WeatherDisplay:10.37,2013-07-10 08:11:00,
2013-07-10 04:16:00,76.9,74.4,29.87,SW,233,5.2,6.9,92,0.00,CLR,,0.00,WeatherDisplay:10.37,2013-07-10 08:16:00,
2013-07-10 04:21:00,76.9,74.4,29.87,WSW,252,6.5,10.0,92,0.00,CLR,,0.00,WeatherDisplay:10.37,2013-07-10 08:21:00,
2013-07-10 04:26:00,76.9,74.4,29.87,SW,229,4.9,6.9,92,0.00,CLR,,0.00,WeatherDisplay:10.37,2013-07-10 08:26:00,
2013-07-10 04:31:00,76.9,74.4,29.87,WSW,250,6.5,9.2,92,0.00,CLR,,0.00,WeatherDisplay:10.37,2013-07-10 08:31:00,
2013-07-10 04:36:00,76.8,74.3,29.87,SW,233,5.6,8.1,92,0.00,CLR,,0.00,WeatherDisplay:10.37,2013-07-10 08:36:00,
2013-07-10 04:41:00,76.7,74.2,29.87,SW,220,5.7,9.2,92,0.00,CLR,,0.00,WeatherDisplay:10.37,2013-07-10 08:41:00,
2013-07-10 04:46:00,76.7,74.2,29.87,SSW,212,6.0,8.1,92,0.00,CLR,,0.00,WeatherDisplay:10.37,2013-07-10 08:46:00,
2013-07-10 04:51:00,76.6,74.1,29.86,SW,229,6.6,9.2,92,0.00,CLR,,0.00,WeatherDisplay:10.37,2013-07-10 08:51:00,
2013-07-10 04:56:00,76.6,74.4,29.86,SW,233,6.6,8.1,93,0.00,CLR,,0.00,WeatherDisplay:10.37,2013-07-10 08:56:00,
2013-07-10 05:01:00,76.5,74.3,29.87,SW,234,5.5,6.9,93,0.00,CLR,,0.00,WeatherDisplay:10.37,2013-07-10 09:01:00,
2013-07-10 05:06:00,76.6,74.4,29.86,SW,219,6.1,9.2,93,0.00,CLR,,0.00,WeatherDisplay:10.37,2013-07-10 09:06:00,
2013-07-10 05:11:00,76.6,74.4,29.86,WSW,238,7.3,9.2,93,0.00,CLR,,0.00,WeatherDisplay:10.37,2013-07-10 09:11:00,
2013-07-10 05:16:00,76.5,74.3,29.86,SW,233,7.4,11.5,93,0.00,CLR,,0.00,WeatherDisplay:10.37,2013-07-10 09:16:00,
2013-07-10 05:21:00,76.4,74.2,29.86,SW,229,4.3,6.0,93,0.00,CLR,,0.00,WeatherDisplay:10.37,2013-07-10 09:21:00,
2013-07-10 05:26:00,76.3,74.1,29.87,SW,221,4.6,6.9,93,0.00,CLR,,0.00,WeatherDisplay:10.37,2013-07-10 09:26:00,
2013-07-10 05:31:00,76.3,74.1,29.86,SW,223,6.6,8.1,93,0.00,CLR,,0.00,WeatherDisplay:10.37,2013-07-10 09:31:00,
2013-07-10 05:36:00,76.2,74.0,29.87,SW,232,3.6,5.8,93,0.00,CLR,,0.00,WeatherDisplay:10.37,2013-07-10 09:36:00,
2013-07-10 05:41:00,76.3,74.1,29.86,SW,231,5.6,8.1,93,0.00,CLR,,0.00,WeatherDisplay:10.37,2013-07-10 09:41:00,
2013-07-10 05:46:00,76.2,74.0,29.87,SW,233,2.9,4.6,93,0.00,CLR,,0.00,WeatherDisplay:10.37,2013-07-10 09:46:00,
2013-07-10 05:51:00,76.1,73.9,29.87,WSW,248,4.5,6.0,93,0.00,CLR,,0.00,WeatherDisplay:10.37,2013-07-10 09:51:00,
2013-07-10 05:56:00,76.0,73.8,29.87,SW,232,4.3,6.9,93,0.00,CLR,,0.00,WeatherDisplay:10.37,2013-07-10 09:56:00,
2013-07-10 06:00:00,78.7,73.1,29.84,North,350,3.0,9.0,83,0.05,RA,,0.10,WeatherDisplay:10.37,2013-07-10 10:00:00,
2013-07-10 06:01:00,75.9,73.7,29.86,SW,220,3.6,4.6,93,0.00,CLR,,0.00,WeatherDisplay:10.37,2013-07-10 10:01:00,
2013-07-10 06:06:00,75.7,73.5,29.87,SW,225,4.3,5.8,93,0.00,CLR,,0.00,WeatherDisplay:10.37,2013-07-10 10:06:00,
2013-07-10 06:11:00,75.7,73.8,29.87,SW,235,3.3,4.6,94,0.00,CLR,,0.00,WeatherDisplay:10.37,2013-07-10 10:11:00,
2013-07-10 06:16:00,75.6,73.4,29.86,SW,220,3.1,3.5,93,0.00,CLR,,0.00,WeatherDisplay:10.37,2013-07-10 10:16:00,
2013-07-10 06:21:00,75.5,73.7,29.86,SW,222,3.0,4.6,94,0.00,CLR,,0.00,WeatherDisplay:10.37,2013-07-10 10:21:00,
2013-07-10 06:26:00,75.3,73.5,29.86,SW,233,2.3,3.5,94,0.00,CLR,,0.00,WeatherDisplay:10.37,2013-07-10 10:26:00,
2013-07-10 06:31:00,75.2,73.4,29.86,SW,231,1.9,3.5,94,0.00,CLR,,0.00,WeatherDisplay:10.37,2013-07-10 10:31:00,
2013-07-10 06:35:00,78.7,69.3,29.85,North,357,6.0,11.0,73,0.05,RA,,0.10,WeatherDisplay:10.37,2013-07-10 10:35:00,
2013-07-10 06:36:00,75.0,73.2,29.86,WSW,239,3.4,4.6,94,0.00,CLR,,0.00,WeatherDisplay:10.37,2013-07-10 10:36:00,
2013-07-10 06:40:00,78.7,69.3,29.85,North,0,6.0,11.0,73,0.00,CLR,,0.10,WeatherDisplay:10.37,2013-07-10 10:40:00,
2013-07-10 06:41:00,75.0,73.5,29.86,WSW,254,3.2,5.0,95,0.00,CLR,,0.00,WeatherDisplay:10.37,2013-07-10 10:41:00,
2013-07-10 06:45:00,78.7,69.3,29.85,North,0,6.0,11.0,73,0.00,CLR,,0.10,WeatherDisplay:10.37,2013-07-10 10:45:00,
2013-07-10 06:46:00,75.0,73.5,29.86,WSW,240,2.2,3.5,95,0.00,CLR,,0.00,WeatherDisplay:10.37,2013-07-10 10:46:00,
2013-07-10 06:50:00,78.7,69.3,29.85,North,0,6.0,11.0,73,0.00,CLR,,0.10,WeatherDisplay:10.37,2013-07-10 10:50:00,
2013-07-10 06:51:00,75.1,73.6,29.86,SW,227,2.8,3.5,95,0.00,CLR,,0.00,WeatherDisplay:10.37,2013-07-10 10:51:00,
2013-07-10 06:55:00,78.7,69.3,29.85,North,0,6.0,11.0,73,0.00,CLR,,0.10,WeatherDisplay:10.37,2013-07-10 10:55:00,
2013-07-10 06:56:00,75.1,73.6,29.86,SW,227,3.9,4.6,95,0.00,CLR,,0.00,WeatherDisplay:10.37,2013-07-10 10:56:00,
2013-07-10 07:00:00,78.7,69.3,29.85,North,0,6.0,11.0,73,0.00,CLR,,0.10,WeatherDisplay:10.37,2013-07-10 11:00:00,
2013-07-10 07:01:00,75.2,73.7,29.86,SW,231,2.0,3.5,95,0.00,CLR,,0.00,WeatherDisplay:10.37,2013-07-10 11:01:00,
2013-07-10 07:05:00,77.5,67.4,29.85,NNW,348,7.0,14.0,71,0.00,CLR,,0.10,WeatherDisplay:10.37,2013-07-10 11:05:00,
2013-07-10 07:06:00,75.2,73.7,29.86,SW,232,3.3,4.6,95,0.00,CLR,,0.00,WeatherDisplay:10.37,2013-07-10 11:06:00,
2013-07-10 07:10:00,77.5,67.4,29.85,NNW,338,7.0,14.0,71,0.00,CLR,,0.10,WeatherDisplay:10.37,2013-07-10 11:10:00,
2013-07-10 07:11:00,75.3,73.5,29.86,SW,228,3.3,4.6,94,0.00,CLR,,0.00,WeatherDisplay:10.37,2013-07-10 11:11:00,
2013-07-10 07:15:00,77.5,67.4,29.85,NNW,338,7.0,14.0,71,0.00,CLR,,0.10,WeatherDisplay:10.37,2013-07-10 11:15:00,
2013-07-10 07:16:00,75.4,73.6,29.85,SW,217,2.4,3.5,94,0.00,CLR,,0.00,WeatherDisplay:10.37,2013-07-10 11:16:00,
2013-07-10 07:20:00,77.5,67.4,29.85,NNW,338,7.0,14.0,71,0.00,CLR,,0.10,WeatherDisplay:10.37,2013-07-10 11:20:00,
2013-07-10 07:21:00,75.5,73.7,29.85,SW,225,2.7,4.0,94,0.00,CLR,,0.00,WeatherDisplay:10.37,2013-07-10 11:21:00,
2013-07-10 07:25:00,77.5,67.4,29.85,NNW,338,7.0,14.0,71,0.00,CLR,,0.10,WeatherDisplay:10.37,2013-07-10 11:25:00,
2013-07-10 07:26:00,75.6,73.8,29.85,SSW,213,3.6,4.6,94,0.00,CLR,,0.00,WeatherDisplay:10.37,2013-07-10 11:26:00,
2013-07-10 07:30:00,77.5,67.4,29.85,NNW,338,7.0,14.0,71,0.00,CLR,,0.10,WeatherDisplay:10.37,2013-07-10 11:30:00,
2013-07-10 07:31:00,75.7,73.8,29.85,SSW,211,3.0,3.5,94,0.00,CLR,,0.00,WeatherDisplay:10.37,2013-07-10 11:31:00,
2013-07-10 07:35:00,76.6,66.1,29.86,North,350,8.0,15.0,70,0.00,CLR,,0.10,WeatherDisplay:10.37,2013-07-10 11:35:00,
2013-07-10 07:36:00,75.9,74.0,29.85,SW,217,3.9,6.9,94,0.00,CLR,,0.00,WeatherDisplay:10.37,2013-07-10 11:36:00,
2013-07-10 07:40:00,76.6,66.1,29.86,North,0,8.0,15.0,70,0.00,CLR,,0.10,WeatherDisplay:10.37,2013-07-10 11:40:00,
2013-07-10 07:41:00,76.0,74.1,29.85,SSW,209,2.9,3.5,94,0.00,CLR,,0.00,WeatherDisplay:10.37,2013-07-10 11:41:00,
2013-07-10 07:45:00,76.6,66.1,29.86,North,0,8.0,15.0,70,0.00,CLR,,0.10,WeatherDisplay:10.37,2013-07-10 11:45:00,
2013-07-10 07:46:00,76.2,74.3,29.85,SW,231,5.8,8.1,94,0.00,CLR,,0.00,WeatherDisplay:10.37,2013-07-10 11:46:00,
2013-07-10 07:50:00,76.6,66.1,29.86,North,0,8.0,15.0,70,0.00,CLR,,0.10,WeatherDisplay:10.37,2013-07-10 11:50:00,
2013-07-10 07:51:00,76.5,74.6,29.85,SW,219,3.5,5.8,94,0.00,CLR,,0.00,WeatherDisplay:10.37,2013-07-10 11:51:00,
2013-07-10 07:55:00,76.6,66.1,29.86,North,0,8.0,15.0,70,0.00,CLR,,0.10,WeatherDisplay:10.37,2013-07-10 11:55:00,
2013-07-10 07:56:00,76.6,74.4,29.85,SW,219,4.1,5.8,93,0.00,CLR,,0.00,WeatherDisplay:10.37,2013-07-10 11:56:00,
2013-07-10 08:00:00,76.6,66.1,29.86,North,0,8.0,15.0,70,0.00,CLR,,0.10,WeatherDisplay:10.37,2013-07-10 12:00:00,
2013-07-10 08:01:00,76.9,74.7,29.85,SW,227,5.3,6.9,93,0.00,CLR,,0.00,WeatherDisplay:10.37,2013-07-10 12:01:00,
2013-07-10 08:05:00,75.4,65.7,29.88,North,0,7.0,15.0,72,0.00,CLR,,0.10,WeatherDisplay:10.37,2013-07-10 12:05:00,
2013-07-10 08:06:00,77.1,74.9,29.85,SW,231,4.1,8.1,93,0.00,CLR,,0.00,WeatherDisplay:10.37,2013-07-10 12:06:00,
2013-07-10 08:10:00,75.4,65.7,29.88,North,0,7.0,15.0,72,0.00,CLR,,0.10,WeatherDisplay:10.37,2013-07-10 12:10:00,
2013-07-10 08:11:00,77.3,74.8,29.85,SW,226,6.4,8.1,92,0.00,CLR,,0.00,WeatherDisplay:10.37,2013-07-10 12:11:00,
2013-07-10 08:15:00,75.4,65.7,29.88,North,0,7.0,15.0,72,0.00,CLR,,0.10,WeatherDisplay:10.37,2013-07-10 12:15:00,
2013-07-10 08:16:00,77.5,75.0,29.85,SW,219,4.7,6.9,92,0.00,CLR,,0.00,WeatherDisplay:10.37,2013-07-10 12:16:00,
2013-07-10 08:20:00,75.4,65.7,29.88,North,0,7.0,15.0,72,0.00,CLR,,0.10,WeatherDisplay:10.37,2013-07-10 12:20:00,
2013-07-10 08:21:00,77.8,75.3,29.85,SW,221,7.0,8.1,92,0.00,CLR,,0.00,WeatherDisplay:10.37,2013-07-10 12:21:00,
2013-07-10 08:25:00,75.4,65.7,29.88,North,0,7.0,15.0,72,0.00,CLR,,0.10,WeatherDisplay:10.37,2013-07-10 12:25:00,
2013-07-10 08:26:00,78.0,75.2,29.85,WSW,238,4.8,5.8,91,0.00,CLR,,0.00,WeatherDisplay:10.37,2013-07-10 12:26:00,
2013-07-10 08:30:00,75.4,65.7,29.88,North,0,7.0,15.0,72,0.00,CLR,,0.10,WeatherDisplay:10.37,2013-07-10 12:30:00,
2013-07-10 08:31:00,78.2,75.4,29.85,SW,234,5.5,6.9,91,0.00,CLR,,0.00,WeatherDisplay:10.37,2013-07-10 12:31:00,
2013-07-10 08:35:00,73.8,62.2,29.90,North,11,7.0,14.0,67,0.00,CLR,,0.10,WeatherDisplay:10.37,2013-07-10 12:35:00,
2013-07-10 08:36:00,78.5,75.7,29.85,SW,232,4.9,8.1,91,0.00,CLR,,0.00,WeatherDisplay:10.37,2013-07-10 12:36:00,
2013-07-10 08:40:00,73.8,62.2,29.90,NNE,22,7.0,14.0,67,0.00,CLR,,0.10,WeatherDisplay:10.37,2013-07-10 12:40:00,
2013-07-10 08:41:00,78.8,75.6,29.85,WSW,240,5.4,6.9,90,0.00,CLR,,0.00,WeatherDisplay:10.37,2013-07-10 12:41:00,
2013-07-10 08:45:00,73.8,62.2,29.90,NNE,22,7.0,14.0,67,0.00,CLR,,0.10,WeatherDisplay:10.37,2013-07-10 12:45:00,
2013-07-10 08:46:00,79.1,75.9,29.85,SW,233,4.9,6.9,90,0.00,CLR,,0.00,WeatherDisplay:10.37,2013-07-10 12:46:00,
2013-07-10 08:50:00,73.8,62.2,29.90,NNE,22,7.0,14.0,67,0.00,CLR,,0.10,WeatherDisplay:10.37,2013-07-10 12:50:00,
2013-07-10 08:51:00,79.4,75.9,29.85,WSW,237,4.8,5.8,89,0.00,CLR,,0.00,WeatherDisplay:10.37,2013-07-10 12:51:00,
2013-07-10 08:55:00,73.8,62.2,29.90,NNE,22,7.0,14.0,67,0.00,CLR,,0.10,WeatherDisplay:10.37,2013-07-10 12:55:00,
2013-07-10 08:56:00,79.5,76.0,29.85,WSW,251,6.6,10.4,89,0.00,CLR,,0.00,WeatherDisplay:10.37,2013-07-10 12:56:00,
2013-07-10 09:00:00,73.8,62.2,29.90,NNE,22,7.0,14.0,67,0.00,CLR,,0.10,WeatherDisplay:10.37,2013-07-10 13:00:00,
2013-07-10 09:01:00,79.7,75.8,29.85,WSW,240,8.3,10.4,88,0.00,CLR,,0.00,WeatherDisplay:10.37,2013-07-10 13:01:00,
2013-07-10 09:05:00,72.5,62.6,29.91,NNE,22,6.0,15.0,71,0.00,CLR,,0.10,WeatherDisplay:10.37,2013-07-10 13:05:00,
2013-07-10 09:06:00,80.0,76.1,29.85,SW,236,6.5,9.2,88,0.00,CLR,,0.00,WeatherDisplay:10.37,2013-07-10 13:06:00,
2013-07-10 09:10:00,72.5,62.6,29.91,NNE,22,6.0,15.0,71,0.00,CLR,,0.10,WeatherDisplay:10.37,2013-07-10 13:10:00,
2013-07-10 09:11:00,80.4,76.2,29.85,WSW,237,7.0,9.2,87,0.00,CLR,,0.00,WeatherDisplay:10.37,2013-07-10 13:11:00,
2013-07-10 09:15:00,72.5,62.6,29.91,NNE,22,6.0,15.0,71,0.00,CLR,,0.10,WeatherDisplay:10.37,2013-07-10 13:15:00,
2013-07-10 09:16:00,80.7,76.1,29.85,WSW,242,8.9,11.5,86,0.00,CLR,,0.00,WeatherDisplay:10.37,2013-07-10 13:16:00,
2013-07-10 09:20:00,72.5,62.6,29.91,NNE,22,6.0,15.0,71,0.00,CLR,,0.10,WeatherDisplay:10.37,2013-07-10 13:20:00,
2013-07-10 09:21:00,80.4,76.2,29.85,WSW,239,7.8,9.2,87,0.00,CLR,,0.00,WeatherDisplay:10.37,2013-07-10 13:21:00,
2013-07-10 09:25:00,72.5,62.6,29.91,NNE,22,6.0,15.0,71,0.00,CLR,,0.10,WeatherDisplay:10.37,2013-07-10 13:25:00,
2013-07-10 09:26:00,80.8,76.6,29.85,SW,228,5.0,8.0,87,0.00,CLR,,0.00,WeatherDisplay:10.37,2013-07-10 13:26:00,
2013-07-10 09:30:00,72.5,62.6,29.91,NNE,22,6.0,15.0,71,0.00,CLR,,0.10,WeatherDisplay:10.37,2013-07-10 13:30:00,
2013-07-10 09:31:00,80.9,76.7,29.85,WSW,252,5.4,9.2,87,0.00,CLR,,0.00,WeatherDisplay:10.37,2013-07-10 13:31:00,
2013-07-10 09:35:00,70.8,60.1,29.93,NNE,17,2.0,8.0,69,0.00,CLR,,0.10,WeatherDisplay:10.37,2013-07-10 13:35:00,
2013-07-10 09:36:00,81.0,76.8,29.85,SW,219,6.3,10.4,87,0.00,CLR,,0.00,WeatherDisplay:10.37,2013-07-10 13:36:00,
2013-07-10 09:40:00,70.8,60.1,29.93,North,0,2.0,8.0,69,0.00,CLR,,0.10,WeatherDisplay:10.37,2013-07-10 13:40:00,
2013-07-10 09:41:00,81.1,76.5,29.85,SW,230,6.1,9.2,86,0.00,CLR,,0.00,WeatherDisplay:10.37,2013-07-10 13:41:00,
2013-07-10 09:45:00,70.8,60.1,29.93,North,0,2.0,8.0,69,0.00,CLR,,0.10,WeatherDisplay:10.37,2013-07-10 13:45:00,
2013-07-10 09:46:00,81.3,77.1,29.86,WSW,244,5.0,5.8,87,0.00,CLR,,0.00,WeatherDisplay:10.37,2013-07-10 13:46:00,
2013-07-10 09:50:00,70.8,60.1,29.93,North,0,2.0,8.0,69,0.00,CLR,,0.10,WeatherDisplay:10.37,2013-07-10 13:50:00,
2013-07-10 09:51:00,81.8,76.8,29.85,West,260,3.9,5.8,85,0.00,CLR,,0.00,WeatherDisplay:10.37,2013-07-10 13:51:00,
2013-07-10 09:55:00,70.8,60.1,29.93,North,0,2.0,8.0,69,0.00,CLR,,0.10,WeatherDisplay:10.37,2013-07-10 13:55:00,
2013-07-10 09:56:00,81.7,76.7,29.85,WSW,255,7.3,11.5,85,0.00,CLR,,0.00,WeatherDisplay:10.37,2013-07-10 13:56:00,
2013-07-10 10:00:00,70.8,60.1,29.93,North,0,2.0,8.0,69,0.00,CLR,,0.10,WeatherDisplay:10.37,2013-07-10 14:00:00,
2013-07-10 10:01:00,81.6,76.6,29.85,WSW,244,5.5,9.2,85,0.00,CLR,,0.00,WeatherDisplay:10.37,2013-07-10 14:01:00,
2013-07-10 10:05:00,68.3,59.7,29.94,North,7,1.0,4.0,74,0.00,CLR,,0.10,WeatherDisplay:10.37,2013-07-10 14:05:00,
2013-07-10 10:06:00,82.0,77.0,29.85,SW,225,4.3,6.9,85,0.00,CLR,,0.00,WeatherDisplay:10.37,2013-07-10 14:06:00,
2013-07-10 10:10:00,68.3,59.7,29.94,NNE,22,1.0,4.0,74,0.00,CLR,,0.10,WeatherDisplay:10.37,2013-07-10 14:10:00,
2013-07-10 10:11:00,82.1,77.1,29.85,WSW,241,7.0,9.2,85,0.00,CLR,,0.00,WeatherDisplay:10.37,2013-07-10 14:11:00,
2013-07-10 10:15:00,68.3,59.7,29.94,NNE,22,1.0,4.0,74,0.00,CLR,,0.10,WeatherDisplay:10.37,2013-07-10 14:15:00,
2013-07-10 10:16:00,82.2,76.9,29.85,SW,233,5.9,8.1,84,0.00,CLR,,0.00,WeatherDisplay:10.37,2013-07-10 14:16:00,
2013-07-10 10:20:00,68.3,59.7,29.94,NNE,22,1.0,4.0,74,0.00,CLR,,0.10,WeatherDisplay:10.37,2013-07-10 14:20:00,
2013-07-10 10:21:00,82.1,77.1,29.84,WSW,252,4.3,8.1,85,0.00,CLR,,0.00,WeatherDisplay:10.37,2013-07-10 14:21:00,
2013-07-10 10:25:00,68.3,59.7,29.94,NNE,22,1.0,4.0,74,0.00,CLR,,0.10,WeatherDisplay:10.37,2013-07-10 14:25:00,
2013-07-10 10:26:00,82.0,76.7,29.84,West,261,5.3,6.9,84,0.00,CLR,,0.00,WeatherDisplay:10.37,2013-07-10 14:26:00,
2013-07-10 10:30:00,68.3,59.7,29.94,NNE,22,1.0,4.0,74,0.00,CLR,,0.10,WeatherDisplay:10.37,2013-07-10 14:30:00,
2013-07-10 10:31:00,81.7,77.1,29.84,WSW,252,4.5,6.0,86,0.00,CLR,,0.00,WeatherDisplay:10.37,2013-07-10 14:31:00,
2013-07-10 10:35:00,66.2,59.8,29.95,NNE,22,0.0,0.0,80,0.00,CLR,,0.10,WeatherDisplay:10.37,2013-07-10 14:35:00,
2013-07-10 10:36:00,81.5,76.6,29.84,WSW,243,6.3,9.2,85,0.00,CLR,,0.00,WeatherDisplay:10.37,2013-07-10 14:36:00,
2013-07-10 10:40:00,66.2,59.8,29.95,NNE,22,0.0,0.0,80,0.00,CLR,,0.10,WeatherDisplay:10.37,2013-07-10 14:40:00,
2013-07-10 10:41:00,81.2,76.6,29.84,WSW,249,3.7,4.6,86,0.00,CLR,,0.00,WeatherDisplay:10.37,2013-07-10 14:41:00,
2013-07-10 10:45:00,66.2,59.8,29.95,NNE,22,0.0,0.0,80,0.00,CLR,,0.10,WeatherDisplay:10.37,2013-07-10 14:45:00,
2013-07-10 10:46:00,81.2,76.6,29.84,WSW,250,1.5,3.5,86,0.00,CLR,,0.00,WeatherDisplay:10.37,2013-07-10 14:46:00,
2013-07-10 10:50:00,66.2,59.8,29.95,NNE,22,0.0,0.0,80,0.00,CLR,,0.10,WeatherDisplay:10.37,2013-07-10 14:50:00,
2013-07-10 10:51:00,81.4,77.2,29.83,SW,228,2.8,3.5,87,0.00,CLR,,0.00,WeatherDisplay:10.37,2013-07-10 14:51:00,
2013-07-10 10:55:00,66.2,59.8,29.95,NNE,22,0.0,0.0,80,0.00,CLR,,0.10,WeatherDisplay:10.37,2013-07-10 14:55:00,
2013-07-10 10:56:00,81.7,77.1,29.83,SW,236,1.9,3.5,86,0.00,CLR,,0.00,WeatherDisplay:10.37,2013-07-10 14:56:00,
2013-07-10 11:00:00,66.2,59.8,29.95,NNE,22,0.0,0.0,80,0.00,CLR,,0.10,WeatherDisplay:10.37,2013-07-10 15:00:00,
2013-07-10 11:01:00,81.9,76.9,29.83,SW,233,4.6,5.8,85,0.00,CLR,,0.00,WeatherDisplay:10.37,2013-07-10 15:01:00,
2013-07-10 11:05:00,64.2,58.9,29.96,NNE,22,0.0,0.0,83,0.00,CLR,,0.10,WeatherDisplay:10.37,2013-07-10 15:05:00,
2013-07-10 11:06:00,81.9,77.3,29.83,SW,234,2.4,3.5,86,0.00,CLR,,0.00,WeatherDisplay:10.37,2013-07-10 15:06:00,
2013-07-10 11:10:00,64.2,58.9,29.96,NNE,22,0.0,0.0,83,0.00,CLR,,0.10,WeatherDisplay:10.37,2013-07-10 15:10:00,
2013-07-10 11:11:00,81.6,76.6,29.84,WSW,255,3.9,4.6,85,0.00,CLR,,0.00,WeatherDisplay:10.37,2013-07-10 15:11:00,
2013-07-10 11:15:00,64.2,58.9,29.96,NNE,22,0.0,0.0,83,0.00,CLR,,0.10,WeatherDisplay:10.37,2013-07-10 15:15:00,
2013-07-10 11:16:00,81.2,76.6,29.85,SW,231,3.5,4.0,86,0.00,CLR,,0.00,WeatherDisplay:10.37,2013-07-10 15:16:00,
2013-07-10 11:20:00,64.2,58.9,29.96,NNE,22,0.0,0.0,83,0.00,CLR,,0.10,WeatherDisplay:10.37,2013-07-10 15:20:00,
2013-07-10 11:21:00,80.9,76.3,29.84,SW,221,5.0,5.8,86,0.00,CLR,,0.00,WeatherDisplay:10.37,2013-07-10 15:21:00,
2013-07-10 11:25:00,64.2,58.9,29.96,NNE,22,0.0,0.0,83,0.00,CLR,,0.10,WeatherDisplay:10.37,2013-07-10 15:25:00,
2013-07-10 11:26:00,80.8,76.9,29.83,SW,228,0.1,1.1,88,0.00,CLR,,0.00,WeatherDisplay:10.37,2013-07-10 15:26:00,
2013-07-10 11:30:00,64.2,58.9,29.96,NNE,22,0.0,0.0,83,0.00,CLR,,0.10,WeatherDisplay:10.37,2013-07-10 15:30:00,
2013-07-10 11:31:00,80.6,76.7,29.83,SW,236,3.0,4.6,88,0.00,CLR,,0.00,WeatherDisplay:10.37,2013-07-10 15:31:00,
2013-07-10 11:35:00,62.7,59.4,29.98,NNE,22,0.0,0.0,89,0.00,CLR,,0.10,WeatherDisplay:10.37,2013-07-10 15:35:00,
2013-07-10 11:36:00,80.3,76.4,29.84,SW,234,1.7,3.5,88,0.00,CLR,,0.00,WeatherDisplay:10.37,2013-07-10 15:36:00,
2013-07-10 11:40:00,62.7,59.4,29.98,NNE,22,0.0,0.0,89,0.00,CLR,,0.10,WeatherDisplay:10.37,2013-07-10 15:40:00,
2013-07-10 11:41:00,80.2,76.7,29.84,SW,236,2.4,3.5,89,0.00,CLR,,0.00,WeatherDisplay:10.37,2013-07-10 15:41:00,
2013-07-10 11:45:00,62.7,59.4,29.98,NNE,22,0.0,0.0,89,0.00,CLR,,0.10,WeatherDisplay:10.37,2013-07-10 15:45:00,
2013-07-10 11:46:00,80.0,76.5,29.84,West,269,1.5,2.3,89,0.00,CLR,,0.00,WeatherDisplay:10.37,2013-07-10 15:46:00,
2013-07-10 11:50:00,62.7,59.4,29.98,NNE,22,0.0,0.0,89,0.00,CLR,,0.10,WeatherDisplay:10.37,2013-07-10 15:50:00,
2013-07-10 11:51:00,79.9,76.7,29.85,West,269,0.4,2.3,90,0.00,CLR,,0.00,WeatherDisplay:10.37,2013-07-10 15:51:00,
2013-07-10 11:55:00,62.7,59.4,29.98,NNE,22,0.0,0.0,89,0.00,CLR,,0.10,WeatherDisplay:10.37,2013-07-10 15:55:00,
2013-07-10 11:56:00,79.8,76.6,29.84,West,265,0.7,2.3,90,0.00,CLR,,0.00,WeatherDisplay:10.37,2013-07-10 15:56:00,
2013-07-10 12:00:00,62.7,59.4,29.98,NNE,22,0.0,0.0,89,0.00,CLR,,0.10,WeatherDisplay:10.37,2013-07-10 16:00:00,
2013-07-10 12:01:00,79.7,76.5,29.84,WSW,257,1.3,2.3,90,0.00,CLR,,0.00,WeatherDisplay:10.37,2013-07-10 16:01:00,
2013-07-10 12:05:00,61.8,59.1,29.99,NNE,22,0.0,0.0,91,0.00,CLR,,0.10,WeatherDisplay:10.37,2013-07-10 16:05:00,
2013-07-10 12:06:00,79.5,76.3,29.86,West,265,4.8,5.8,90,0.00,CLR,,0.00,WeatherDisplay:10.37,2013-07-10 16:06:00,
2013-07-10 12:10:00,61.8,59.1,29.99,NNE,22,0.0,0.0,91,0.00,CLR,,0.10,WeatherDisplay:10.37,2013-07-10 16:10:00,
2013-07-10 12:11:00,79.3,76.4,29.85,West,280,4.3,5.8,91,0.00,CLR,,0.00,WeatherDisplay:10.37,2013-07-10 16:11:00,
2013-07-10 12:15:00,61.8,59.1,29.99,NNE,22,0.0,0.0,91,0.00,CLR,,0.10,WeatherDisplay:10.37,2013-07-10 16:15:00,
2013-07-10 12:16:00,79.0,76.5,29.88,NW,326,3.8,6.0,92,0.00,CLR,,0.00,WeatherDisplay:10.37,2013-07-10 16:16:00,
2013-07-10 12:20:00,61.8,59.1,29.99,NNE,22,0.0,0.0,91,0.00,CLR,,0.10,WeatherDisplay:10.37,2013-07-10 16:20:00,
2013-07-10 12:21:00,76.8,69.8,29.89,NW,317,8.2,15.0,79,0.02,RA,,0.02,WeatherDisplay:10.37,2013-07-10 16:21:00,
2013-07-10 12:25:00,61.8,59.1,29.99,NNE,22,0.0,0.0,91,0.00,CLR,,0.10,WeatherDisplay:10.37,2013-07-10 16:25:00,
2013-07-10 12:26:00,73.5,66.9,29.84,NNW,343,8.7,15.0,80,0.02,RA,,0.02,WeatherDisplay:10.37,2013-07-10 16:26:00,
2013-07-10 12:30:00,61.8,59.1,29.99,NNE,22,0.0,0.0,91,0.00,CLR,,0.10,WeatherDisplay:10.37,2013-07-10 16:30:00,
2013-07-10 12:31:00,72.0,65.1,29.82,NNE,33,6.2,10.4,79,0.03,RA,,0.03,WeatherDisplay:10.37,2013-07-10 16:31:00,
2013-07-10 12:35:00,61.1,59.1,29.99,NNE,22,0.0,0.0,93,0.00,CLR,,0.10,WeatherDisplay:10.37,2013-07-10 16:35:00,
2013-07-10 12:36:00,71.7,64.8,29.84,NNE,22,3.1,8.1,79,0.03,RA,,0.03,WeatherDisplay:10.37,2013-07-10 16:36:00,
2013-07-10 12:40:00,61.1,59.1,29.99,NNE,22,0.0,0.0,93,0.00,CLR,,0.10,WeatherDisplay:10.37,2013-07-10 16:40:00,
2013-07-10 12:41:00,71.7,66.3,29.85,NW,306,2.7,3.0,83,0.03,,,0.03,WeatherDisplay:10.37,2013-07-10 16:41:00,
2013-07-10 12:45:00,61.1,59.1,29.99,NNE,22,0.0,0.0,93,0.00,CLR,,0.10,WeatherDisplay:10.37,2013-07-10 16:45:00,
2013-07-10 12:46:00,71.5,66.4,29.85,West,277,2.1,5.8,84,0.03,CLR,,0.03,WeatherDisplay:10.37,2013-07-10 16:46:00,
2013-07-10 12:50:00,61.1,59.1,29.99,NNE,22,0.0,0.0,93,0.00,CLR,,0.10,WeatherDisplay:10.37,2013-07-10 16:50:00,
2013-07-10 12:51:00,71.3,66.2,29.85,West,273,2.7,4.6,84,0.03,CLR,,0.03,WeatherDisplay:10.37,2013-07-10 16:51:00,
2013-07-10 12:55:00,61.1,59.1,29.99,NNE,22,0.0,0.0,93,0.00,CLR,,0.10,WeatherDisplay:10.37,2013-07-10 16:55:00,
2013-07-10 12:56:00,71.5,66.8,29.86,SSW,194,3.6,4.0,85,0.03,CLR,,0.03,WeatherDisplay:10.37,2013-07-10 16:56:00,
2013-07-10 13:00:00,61.1,59.1,29.99,NNE,22,0.0,0.0,93,0.00,CLR,,0.10,WeatherDisplay:10.37,2013-07-10 17:00:00,
2013-07-10 13:01:00,71.5,67.1,29.88,SSW,204,5.0,8.1,86,0.03,CLR,,0.03,WeatherDisplay:10.37,2013-07-10 17:01:00,
2013-07-10 13:05:00,60.1,58.4,29.99,NNE,22,0.0,0.0,94,0.00,CLR,,0.10,WeatherDisplay:10.37,2013-07-10 17:05:00,
2013-07-10 13:06:00,71.1,66.7,29.88,SSW,198,6.1,7.0,86,0.03,CLR,,0.03,WeatherDisplay:10.37,2013-07-10 17:06:00,
2013-07-10 13:10:00,60.1,58.4,29.99,NNE,22,0.0,0.0,94,0.00,CLR,,0.10,WeatherDisplay:10.37,2013-07-10 17:10:00,
2013-07-10 13:11:00,70.9,66.5,29.88,West,260,1.7,4.6,86,0.03,CLR,,0.03,WeatherDisplay:10.37,2013-07-10 17:11:00,
2013-07-10 13:15:00,60.1,58.4,29.99,NNE,22,0.0,0.0,94,0.00,CLR,,0.10,WeatherDisplay:10.37,2013-07-10 17:15:00,
2013-07-10 13:16:00,71.0,66.6,29.86,WNW,284,3.1,3.1,86,0.03,CLR,,0.03,WeatherDisplay:10.37,2013-07-10 17:16:00,
2013-07-10 13:20:00,60.1,58.4,29.99,NNE,22,0.0,0.0,94,0.00,CLR,,0.10,WeatherDisplay:10.37,2013-07-10 17:20:00,
2013-07-10 13:21:00,71.0,66.9,29.86,West,270,4.6,5.8,87,0.01,CLR,,0.03,WeatherDisplay:10.37,2013-07-10 17:21:00,
2013-07-10 13:25:00,60.1,58.4,29.99,NNE,22,0.0,0.0,94,0.00,CLR,,0.10,WeatherDisplay:10.37,2013-07-10 17:25:00,
2013-07-10 13:26:00,71.0,67.3,29.85,West,266,3.6,5.8,88,0.01,CLR,,0.03,WeatherDisplay:10.37,2013-07-10 17:26:00,
2013-07-10 13:30:00,60.1,58.4,29.99,NNE,22,0.0,0.0,94,0.00,CLR,,0.10,WeatherDisplay:10.37,2013-07-10 17:30:00,
2013-07-10 13:31:00,70.9,67.2,29.86,SW,236,2.7,4.6,88,0.00,CLR,,0.03,WeatherDisplay:10.37,2013-07-10 17:31:00,
2013-07-10 13:35:00,59.6,58.2,29.99,NNE,22,0.0,0.0,95,0.00,CLR,,0.10,WeatherDisplay:10.37,2013-07-10 17:35:00,
2013-07-10 13:37:00,71.0,67.6,29.87,WSW,257,2.1,6.9,89,0.00,CLR,,0.03,WeatherDisplay:10.37,2013-07-10 17:37:00,
2013-07-10 13:40:00,59.6,58.2,29.99,NNE,22,0.0,0.0,95,0.00,CLR,,0.10,WeatherDisplay:10.37,2013-07-10 17:40:00,
2013-07-10 13:42:00,71.2,68.1,29.90,WSW,244,5.0,7.0,90,0.00,CLR,,0.03,WeatherDisplay:10.37,2013-07-10 17:42:00,
2013-07-10 13:45:00,59.6,58.2,29.99,NNE,22,0.0,0.0,95,0.00,CLR,,0.10,WeatherDisplay:10.37,2013-07-10 17:45:00,
2013-07-10 13:47:00,71.5,68.7,29.91,SW,219,6.8,9.2,91,0.00,CLR,,0.03,WeatherDisplay:10.37,2013-07-10 17:47:00,
2013-07-10 13:50:00,59.6,58.2,29.99,NNE,22,0.0,0.0,95,0.00,CLR,,0.10,WeatherDisplay:10.37,2013-07-10 17:50:00,
2013-07-10 13:52:00,71.9,69.1,29.90,West,264,8.1,10.4,91,0.00,CLR,,0.03,WeatherDisplay:10.37,2013-07-10 17:52:00,
2013-07-10 13:55:00,59.6,58.2,29.99,NNE,22,0.0,0.0,95,0.00,CLR,,0.10,WeatherDisplay:10.37,2013-07-10 17:55:00,
2013-07-10 13:57:00,72.2,69.1,29.90,WSW,250,7.8,11.5,90,0.00,CLR,,0.03,WeatherDisplay:10.37,2013-07-10 17:57:00,
2013-07-10 14:00:00,59.6,58.2,29.99,NNE,22,0.0,0.0,95,0.00,CLR,,0.10,WeatherDisplay:10.37,2013-07-10 18:00:00,
2013-07-10 14:02:00,72.5,69.4,29.92,WSW,239,8.9,11.5,90,0.00,CLR,,0.03,WeatherDisplay:10.37,2013-07-10 18:02:00,
2013-07-10 14:05:00,59.3,58.2,29.99,NNE,22,0.0,0.0,96,0.00,RA,,0.00,WeatherDisplay:10.37,2013-07-10 18:05:00,
2013-07-10 14:07:00,72.7,69.6,29.93,SW,236,9.3,12.7,90,0.00,CLR,,0.03,WeatherDisplay:10.37,2013-07-10 18:07:00,
2013-07-10 14:10:00,59.3,58.2,29.99,NNE,22,0.0,0.0,96,0.00,RA,,0.00,WeatherDisplay:10.37,2013-07-10 18:10:00,
2013-07-10 14:12:00,72.5,69.1,29.93,SW,217,12.9,18.4,89,0.00,CLR,,0.03,WeatherDisplay:10.37,2013-07-10 18:12:00,
2013-07-10 14:15:00,59.3,58.2,29.99,NNE,22,0.0,0.0,96,0.00,CLR,,0.00,WeatherDisplay:10.37,2013-07-10 18:15:00,
2013-07-10 14:17:00,72.2,68.8,29.94,WSW,255,12.3,19.6,89,0.00,CLR,,0.03,WeatherDisplay:10.37,2013-07-10 18:17:00,
2013-07-10 14:20:00,59.3,58.2,29.99,NNE,22,0.0,0.0,96,0.00,CLR,,0.00,WeatherDisplay:10.37,2013-07-10 18:20:00,
2013-07-10 14:22:00,72.0,68.2,29.94,SW,219,14.6,19.6,88,0.00,CLR,,0.03,WeatherDisplay:10.37,2013-07-10 18:22:00,
2013-07-10 14:25:00,59.3,58.2,29.99,NNE,22,0.0,0.0,96,0.00,CLR,,0.00,WeatherDisplay:10.37,2013-07-10 18:25:00,
2013-07-10 14:27:00,71.7,68.3,29.94,SW,214,11.9,15.0,89,0.00,CLR,,0.03,WeatherDisplay:10.37,2013-07-10 18:27:00,
2013-07-10 14:30:00,59.3,58.2,29.99,NNE,22,0.0,0.0,96,0.00,CLR,,0.00,WeatherDisplay:10.37,2013-07-10 18:30:00,
2013-07-10 14:32:00,71.5,68.4,29.94,WSW,254,13.4,18.4,90,0.00,CLR,,0.03,WeatherDisplay:10.37,2013-07-10 18:32:00,
2013-07-10 14:35:00,59.1,58.0,29.99,NNE,22,0.0,0.0,96,0.00,CLR,,0.00,WeatherDisplay:10.37,2013-07-10 18:35:00,
2013-07-10 14:37:00,71.6,68.8,29.94,SW,231,16.6,20.7,91,0.00,CLR,,0.03,WeatherDisplay:10.37,2013-07-10 18:37:00,
2013-07-10 14:40:00,59.1,58.0,29.99,NNE,22,0.0,0.0,96,0.00,CLR,,0.00,WeatherDisplay:10.37,2013-07-10 18:40:00,
2013-07-10 14:42:00,71.8,69.0,29.94,WSW,239,10.8,16.1,91,0.00,CLR,,0.03,WeatherDisplay:10.37,2013-07-10 18:42:00,
2013-07-10 14:45:00,59.1,58.0,29.99,NNE,22,0.0,0.0,96,0.00,CLR,,0.00,WeatherDisplay:10.37,2013-07-10 18:45:00,
2013-07-10 14:47:00,71.6,69.2,29.94,WSW,242,10.7,13.8,92,0.01,RA,,0.04,WeatherDisplay:10.37,2013-07-10 18:47:00,
2013-07-10 14:50:00,59.1,58.0,29.99,NNE,22,0.0,0.0,96,0.00,CLR,,0.00,WeatherDisplay:10.37,2013-07-10 18:50:00,
2013-07-10 14:52:00,71.8,69.7,29.95,WSW,254,11.8,15.0,93,0.01,RA,,0.04,WeatherDisplay:10.37,2013-07-10 18:52:00,
2013-07-10 14:55:00,59.1,58.0,29.99,NNE,22,0.0,0.0,96,0.00,CLR,,0.00,WeatherDisplay:10.37,2013-07-10 18:55:00,
2013-07-10 14:57:00,71.9,69.4,29.95,SW,234,10.7,13.8,92,0.01,CLR,,0.04,WeatherDisplay:10.37,2013-07-10 18:57:00,
2013-07-10 15:00:00,59.1,58.0,29.99,NNE,22,0.0,0.0,96,0.00,CLR,,0.00,WeatherDisplay:10.37,2013-07-10 19:00:00,
2013-07-10 15:02:00,71.7,69.3,29.94,SW,220,8.8,12.7,92,0.01,CLR,,0.04,WeatherDisplay:10.37,2013-07-10 19:02:00,
2013-07-10 15:05:00,59.0,57.6,29.99,NNE,22,0.0,1.0,95,0.00,CLR,,0.00,WeatherDisplay:10.37,2013-07-10 19:05:00,
2013-07-10 15:07:00,71.6,69.5,29.94,WSW,241,7.4,9.2,93,0.01,CLR,,0.04,WeatherDisplay:10.37,2013-07-10 19:07:00,
2013-07-10 15:10:00,59.0,57.6,29.99,NNE,22,0.0,1.0,95,0.00,CLR,,0.00,WeatherDisplay:10.37,2013-07-10 19:10:00,
2013-07-10 15:12:00,71.4,69.3,29.94,SW,234,8.0,11.5,93,0.01,CLR,,0.04,WeatherDisplay:10.37,2013-07-10 19:12:00,
2013-07-10 15:15:00,59.0,57.6,29.99,NNE,22,0.0,1.0,95,0.00,CLR,,0.00,WeatherDisplay:10.37,2013-07-10 19:15:00,
2013-07-10 15:17:00,71.6,69.8,29.94,West,266,7.7,11.5,94,0.01,CLR,,0.04,WeatherDisplay:10.37,2013-07-10 19:17:00,
2013-07-10 15:20:00,59.0,57.6,29.99,NNE,22,0.0,1.0,95,0.00,CLR,,0.00,WeatherDisplay:10.37,2013-07-10 19:20:00,
2013-07-10 15:22:00,72.2,70.4,29.94,SW,230,7.8,11.5,94,0.01,CLR,,0.04,WeatherDisplay:10.37,2013-07-10 19:22:00,
2013-07-10 15:25:00,59.0,57.6,29.99,NNE,22,0.0,1.0,95,0.00,CLR,,0.00,WeatherDisplay:10.37,2013-07-10 19:25:00,
2013-07-10 15:27:00,72.3,70.5,29.93,WSW,254,7.3,9.2,94,0.01,CLR,,0.04,WeatherDisplay:10.37,2013-07-10 19:27:00,
2013-07-10 15:30:00,59.0,57.6,29.99,NNE,22,0.0,1.0,95,0.00,CLR,,0.00,WeatherDisplay:10.37,2013-07-10 19:30:00,
2013-07-10 15:32:00,72.4,70.9,29.92,SW,219,5.1,6.0,95,0.02,RA,,0.05,WeatherDisplay:10.37,2013-07-10 19:32:00,
2013-07-10 15:35:00,58.4,57.0,30.00,NNE,22,0.0,1.0,95,0.00,CLR,,0.00,WeatherDisplay:10.37,2013-07-10 19:35:00,
2013-07-10 15:37:00,72.6,70.8,29.92,WSW,245,9.2,12.7,94,0.02,RA,,0.05,WeatherDisplay:10.37,2013-07-10 19:37:00,
2013-07-10 15:40:00,58.4,57.0,30.00,NNE,22,0.0,1.0,95,0.00,CLR,,0.00,WeatherDisplay:10.37,2013-07-10 19:40:00,
2013-07-10 15:45:00,58.4,57.0,30.00,NNE,22,0.0,1.0,95,0.00,CLR,,0.00,WeatherDisplay:10.37,2013-07-10 19:45:00,
2013-07-10 15:50:00,58.4,57.0,30.00,NNE,22,0.0,1.0,95,0.00,CLR,,0.00,WeatherDisplay:10.37,2013-07-10 19:50:00,
2013-07-10 15:55:00,58.4,57.0,30.00,NNE,22,0.0,1.0,95,0.00,CLR,,0.00,WeatherDisplay:10.37,2013-07-10 19:55:00,
2013-07-10 16:00:00,58.4,57.0,30.00,NNE,22,0.0,1.0,95,0.00,CLR,,0.00,WeatherDisplay:10.37,2013-07-10 20:00:00,
2013-07-10 16:05:00,58.0,56.3,30.00,NNE,22,0.0,0.0,94,0.00,CLR,,0.00,WeatherDisplay:10.37,2013-07-10 20:05:00,
2013-07-10 16:10:00,58.0,56.3,30.00,NNE,22,0.0,0.0,94,0.00,CLR,,0.00,WeatherDisplay:10.37,2013-07-10 20:10:00,
2013-07-10 16:15:00,58.0,56.3,30.00,NNE,22,0.0,0.0,94,0.00,CLR,,0.00,WeatherDisplay:10.37,2013-07-10 20:15:00,
2013-07-10 16:20:00,58.0,56.3,30.00,NNE,22,0.0,0.0,94,0.00,CLR,,0.00,WeatherDisplay:10.37,2013-07-10 20:20:00,
2013-07-10 16:25:00,58.0,56.3,30.00,NNE,22,0.0,0.0,94,0.00,CLR,,0.00,WeatherDisplay:10.37,2013-07-10 20:25:00,
2013-07-10 16:30:00,58.0,56.3,30.00,NNE,22,0.0,0.0,94,0.00,CLR,,0.00,WeatherDisplay:10.37,2013-07-10 20:30:00,
2013-07-10 16:35:00,57.6,56.2,30.01,NNE,22,0.0,0.0,95,0.00,CLR,,0.00,WeatherDisplay:10.37,2013-07-10 20:35:00,
2013-07-10 16:40:00,57.6,56.2,30.01,NNE,22,0.0,0.0,95,0.00,CLR,,0.00,WeatherDisplay:10.37,2013-07-10 20:40:00,
2013-07-10 16:45:00,57.6,56.2,30.01,NNE,22,0.0,0.0,95,0.00,CLR,,0.00,WeatherDisplay:10.37,2013-07-10 20:45:00,
2013-07-10 16:50:00,57.6,56.2,30.01,NNE,22,0.0,0.0,95,0.00,CLR,,0.00,WeatherDisplay:10.37,2013-07-10 20:50:00,
2013-07-10 16:55:00,57.6,56.2,30.01,NNE,22,0.0,0.0,95,0.00,CLR,,0.00,WeatherDisplay:10.37,2013-07-10 20:55:00,
2013-07-10 17:00:00,57.6,56.2,30.01,NNE,22,0.0,0.0,95,0.00,CLR,,0.00,WeatherDisplay:10.37,2013-07-10 21:00:00,
2013-07-10 17:05:00,57.2,55.8,30.02,NNE,22,0.0,0.0,95,0.00,CLR,,0.00,WeatherDisplay:10.37,2013-07-10 21:05:00,
2013-07-10 17:10:00,57.2,55.8,30.02,NNE,22,0.0,0.0,95,0.00,CLR,,0.00,WeatherDisplay:10.37,2013-07-10 21:10:00,
2013-07-10 17:15:00,57.2,55.8,30.02,NNE,22,0.0,0.0,95,0.00,CLR,,0.00,WeatherDisplay:10.37,2013-07-10 21:15:00,
2013-07-10 17:20:00,57.2,55.8,30.02,NNE,22,0.0,0.0,95,0.00,CLR,,0.00,WeatherDisplay:10.37,2013-07-10 21:20:00,
2013-07-10 17:25:00,57.2,55.8,30.02,NNE,22,0.0,0.0,95,0.00,CLR,,0.00,WeatherDisplay:10.37,2013-07-10 21:25:00,
2013-07-10 17:30:00,57.2,55.8,30.02,NNE,22,0.0,0.0,95,0.00,CLR,,0.00,WeatherDisplay:10.37,2013-07-10 21:30:00,
2013-07-10 17:35:00,56.8,55.4,30.02,NNE,22,0.0,0.0,95,0.00,CLR,,0.00,WeatherDisplay:10.37,2013-07-10 21:35:00,
2013-07-10 17:40:00,56.8,55.4,30.02,NNE,22,0.0,0.0,95,0.00,CLR,,0.00,WeatherDisplay:10.37,2013-07-10 21:40:00,
2013-07-10 17:45:00,56.8,55.4,30.02,NNE,22,0.0,0.0,95,0.00,CLR,,0.00,WeatherDisplay:10.37,2013-07-10 21:45:00,
2013-07-10 17:50:00,56.8,55.4,30.02,NNE,22,0.0,0.0,95,0.00,CLR,,0.00,WeatherDisplay:10.37,2013-07-10 21:50:00,
2013-07-10 17:55:00,56.8,55.4,30.02,NNE,22,0.0,0.0,95,0.00,CLR,,0.00,WeatherDisplay:10.37,2013-07-10 21:55:00,
2013-07-10 18:00:00,56.8,55.4,30.02,NNE,22,0.0,0.0,95,0.00,CLR,,0.00,WeatherDisplay:10.37,2013-07-10 22:00:00,
2013-07-10 18:05:00,56.7,55.3,30.02,NNE,22,0.0,1.0,95,0.00,CLR,,0.00,WeatherDisplay:10.37,2013-07-10 22:05:00,
2013-07-10 18:10:00,56.7,55.3,30.02,NNE,22,0.0,1.0,95,0.00,CLR,,0.00,WeatherDisplay:10.37,2013-07-10 22:10:00,
2013-07-10 18:15:00,56.7,55.3,30.02,NNE,22,0.0,1.0,95,0.00,CLR,,0.00,WeatherDisplay:10.37,2013-07-10 22:15:00,
2013-07-10 18:20:00,56.7,55.3,30.02,NNE,22,0.0,1.0,95,0.00,CLR,,0.00,WeatherDisplay:10.37,2013-07-10 22:20:00,
2013-07-10 18:25:00,56.7,55.3,30.02,NNE,22,0.0,1.0,95,0.00,CLR,,0.00,WeatherDisplay:10.37,2013-07-10 22:25:00,
2013-07-10 18:30:00,56.7,55.3,30.02,NNE,22,0.0,1.0,95,0.00,CLR,,0.00,WeatherDisplay:10.37,2013-07-10 22:30:00,
2013-07-10 18:35:00,56.6,55.5,30.02,NNE,22,0.0,0.0,96,0.00,CLR,,0.00,WeatherDisplay:10.37,2013-07-10 22:35:00,
2013-07-10 18:40:00,56.6,55.5,30.02,NNE,22,0.0,0.0,96,0.00,CLR,,0.00,WeatherDisplay:10.37,2013-07-10 22:40:00,
2013-07-10 18:45:00,56.6,55.5,30.02,NNE,22,0.0,0.0,96,0.00,CLR,,0.00,WeatherDisplay:10.37,2013-07-10 22:45:00,
2013-07-10 18:50:00,56.6,55.5,30.02,NNE,22,0.0,0.0,96,0.00,CLR,,0.00,WeatherDisplay:10.37,2013-07-10 22:50:00,
2013-07-10 18:55:00,56.6,55.5,30.02,NNE,22,0.0,0.0,96,0.00,CLR,,0.00,WeatherDisplay:10.37,2013-07-10 22:55:00,
2013-07-10 19:00:00,56.6,55.5,30.02,NNE,22,0.0,0.0,96,0.00,CLR,,0.00,WeatherDisplay:10.37,2013-07-10 23:00:00,
2013-07-10 19:05:00,55.6,54.5,30.03,NNE,22,0.0,0.0,96,0.00,CLR,,0.00,WeatherDisplay:10.37,2013-07-10 23:05:00,
2013-07-10 19:10:00,55.6,54.5,30.03,NNE,22,0.0,0.0,96,0.00,CLR,,0.00,WeatherDisplay:10.37,2013-07-10 23:10:00,
2013-07-10 19:15:00,55.6,54.5,30.03,NNE,22,0.0,0.0,96,0.00,CLR,,0.00,WeatherDisplay:10.37,2013-07-10 23:15:00,
2013-07-10 19:20:00,55.6,54.5,30.03,NNE,22,0.0,0.0,96,0.00,CLR,,0.00,WeatherDisplay:10.37,2013-07-10 23:20:00,
2013-07-10 19:25:00,55.6,54.5,30.03,NNE,22,0.0,0.0,96,0.00,CLR,,0.00,WeatherDisplay:10.37,2013-07-10 23:25:00,
2013-07-10 19:30:00,55.6,54.5,30.03,NNE,22,0.0,0.0,96,0.00,CLR,,0.00,WeatherDisplay:10.37,2013-07-10 23:30:00,
2013-07-10 19:35:00,55.6,54.8,30.05,NNE,22,0.0,3.0,97,0.01,RA,,0.01,WeatherDisplay:10.37,2013-07-10 23:35:00,
2013-07-10 19:40:00,55.6,54.8,30.05,NNE,22,0.0,3.0,97,0.01,RA,,0.01,WeatherDisplay:10.37,2013-07-10 23:40:00,
2013-07-10 19:45:00,55.6,54.8,30.05,NNE,22,0.0,3.0,97,0.00,CLR,,0.01,WeatherDisplay:10.37,2013-07-10 23:45:00,
2013-07-10 19:50:00,55.6,54.8,30.05,NNE,22,0.0,3.0,97,0.00,CLR,,0.01,WeatherDisplay:10.37,2013-07-10 23:50:00,
2013-07-10 19:55:00,55.6,54.8,30.05,NNE,22,0.0,3.0,97,0.00,CLR,,0.01,WeatherDisplay:10.37,2013-07-10 23:55:00,
2013-07-10 20:00:00,55.6,54.8,30.05,NNE,22,0.0,3.0,97,0.00,CLR,,0.01,WeatherDisplay:10.37,2013-07-11 00:00:00,